sensor_id;sensor_type;location;lat;lon;timestamp;temperature;humidity
3684;DHT22;1858;48.716;9.648;2023-06-04T00:00:06;15.50;45.00
3684;DHT22;1858;48.716;9.648;2023-06-04T00:02:35;15.60;48.20
3684;DHT22;1858;48.716;9.648;2023-06-04T00:05:04;15.50;44.60
3684;DHT22;1858;48.716;9.648;2023-06-04T00:07:32;15.50;47.60
3684;DHT22;1858;48.716;9.648;2023-06-04T00:10:01;15.50;48.30
3684;DHT22;1858;48.716;9.648;2023-06-04T00:12:29;15.50;49.10
3684;DHT22;1858;48.716;9.648;2023-06-04T00:14:57;15.50;40.50
3684;DHT22;1858;48.716;9.648;2023-06-04T00:17:26;15.40;41.30
3684;DHT22;1858;48.716;9.648;2023-06-04T00:19:54;15.40;30.70
3684;DHT22;1858;48.716;9.648;2023-06-04T00:22:23;15.30;49.30
3684;DHT22;1858;48.716;9.648;2023-06-04T00:24:52;15.20;47.20
3684;DHT22;1858;48.716;9.648;2023-06-04T00:27:20;15.20;56.70
3684;DHT22;1858;48.716;9.648;2023-06-04T00:29:48;15.20;78.20
3684;DHT22;1858;48.716;9.648;2023-06-04T00:32:17;15.20;60.30
3684;DHT22;1858;48.716;9.648;2023-06-04T00:34:50;15.10;57.80
3684;DHT22;1858;48.716;9.648;2023-06-04T00:37:19;15.20;66.40
3684;DHT22;1858;48.716;9.648;2023-06-04T00:39:47;15.20;87.60
3684;DHT22;1858;48.716;9.648;2023-06-04T00:42:16;15.20;88.40
3684;DHT22;1858;48.716;9.648;2023-06-04T00:44:45;15.20;81.40
3684;DHT22;1858;48.716;9.648;2023-06-04T00:47:15;15.20;75.00
3684;DHT22;1858;48.716;9.648;2023-06-04T00:49:44;15.20;72.90
3684;DHT22;1858;48.716;9.648;2023-06-04T00:52:14;15.20;57.50
3684;DHT22;1858;48.716;9.648;2023-06-04T00:54:43;15.20;41.80
3684;DHT22;1858;48.716;9.648;2023-06-04T00:57:11;15.30;56.90
3684;DHT22;1858;48.716;9.648;2023-06-04T00:59:40;15.30;53.20
3684;DHT22;1858;48.716;9.648;2023-06-04T01:02:20;15.30;45.10
3684;DHT22;1858;48.716;9.648;2023-06-04T01:07:27;15.30;21.60
3684;DHT22;1858;48.716;9.648;2023-06-04T01:09:58;15.20;10.30
3684;DHT22;1858;48.716;9.648;2023-06-04T01:12:27;15.20;10.80
3684;DHT22;1858;48.716;9.648;2023-06-04T01:14:55;15.10;8.90
3684;DHT22;1858;48.716;9.648;2023-06-04T01:17:26;15.10;22.00
3684;DHT22;1858;48.716;9.648;2023-06-04T01:20:11;15.10;24.50
3684;DHT22;1858;48.716;9.648;2023-06-04T01:22:57;15.10;27.10
3684;DHT22;1858;48.716;9.648;2023-06-04T01:25:34;15.10;36.70
3684;DHT22;1858;48.716;9.648;2023-06-04T01:28:06;15.00;32.90
3684;DHT22;1858;48.716;9.648;2023-06-04T01:30:54;15.00;38.60
3684;DHT22;1858;48.716;9.648;2023-06-04T01:33:23;14.90;36.90
3684;DHT22;1858;48.716;9.648;2023-06-04T01:35:52;14.80;58.50
3684;DHT22;1858;48.716;9.648;2023-06-04T01:38:39;14.90;73.50
3684;DHT22;1858;48.716;9.648;2023-06-04T01:41:08;14.80;77.00
3684;DHT22;1858;48.716;9.648;2023-06-04T01:43:37;14.80;52.40
3684;DHT22;1858;48.716;9.648;2023-06-04T01:46:05;14.80;40.20
3684;DHT22;1858;48.716;9.648;2023-06-04T01:48:34;14.80;40.50
3684;DHT22;1858;48.716;9.648;2023-06-04T01:51:02;14.80;34.30
3684;DHT22;1858;48.716;9.648;2023-06-04T01:53:30;14.70;37.50
3684;DHT22;1858;48.716;9.648;2023-06-04T01:55:59;14.60;39.10
3684;DHT22;1858;48.716;9.648;2023-06-04T01:58:28;14.40;50.60
3684;DHT22;1858;48.716;9.648;2023-06-04T02:00:58;14.30;61.90
3684;DHT22;1858;48.716;9.648;2023-06-04T02:03:27;14.30;52.80
3684;DHT22;1858;48.716;9.648;2023-06-04T02:05:57;14.20;70.10
3684;DHT22;1858;48.716;9.648;2023-06-04T02:08:25;14.10;70.80
3684;DHT22;1858;48.716;9.648;2023-06-04T02:10:54;14.10;71.30
3684;DHT22;1858;48.716;9.648;2023-06-04T02:13:23;14.00;85.90
3684;DHT22;1858;48.716;9.648;2023-06-04T02:15:51;14.00;96.80
3684;DHT22;1858;48.716;9.648;2023-06-04T02:18:20;13.90;99.90
3684;DHT22;1858;48.716;9.648;2023-06-04T02:20:50;13.90;99.90
3684;DHT22;1858;48.716;9.648;2023-06-04T02:23:19;13.90;99.90
3684;DHT22;1858;48.716;9.648;2023-06-04T02:25:48;13.90;99.90
3684;DHT22;1858;48.716;9.648;2023-06-04T02:28:17;13.90;99.90
3684;DHT22;1858;48.716;9.648;2023-06-04T02:30:46;13.70;99.90
3684;DHT22;1858;48.716;9.648;2023-06-04T02:33:33;13.60;93.00
3684;DHT22;1858;48.716;9.648;2023-06-04T02:36:02;13.50;92.50
3684;DHT22;1858;48.716;9.648;2023-06-04T02:38:30;13.60;99.90
3684;DHT22;1858;48.716;9.648;2023-06-04T02:40:59;13.60;99.90
3684;DHT22;1858;48.716;9.648;2023-06-04T02:43:27;13.70;99.90
3684;DHT22;1858;48.716;9.648;2023-06-04T02:45:55;13.80;97.80
3684;DHT22;1858;48.716;9.648;2023-06-04T02:48:24;13.70;76.30
3684;DHT22;1858;48.716;9.648;2023-06-04T02:50:52;13.70;77.40
3684;DHT22;1858;48.716;9.648;2023-06-04T02:53:21;13.70;93.10
3684;DHT22;1858;48.716;9.648;2023-06-04T02:55:52;13.60;90.30
3684;DHT22;1858;48.716;9.648;2023-06-04T02:58:20;13.50;99.90
3684;DHT22;1858;48.716;9.648;2023-06-04T03:00:52;13.50;99.90
3684;DHT22;1858;48.716;9.648;2023-06-04T03:03:22;13.40;99.90
3684;DHT22;1858;48.716;9.648;2023-06-04T03:05:50;13.40;99.90
3684;DHT22;1858;48.716;9.648;2023-06-04T03:08:20;13.40;99.90
3684;DHT22;1858;48.716;9.648;2023-06-04T03:10:48;13.30;99.90
3684;DHT22;1858;48.716;9.648;2023-06-04T03:13:16;13.20;99.90
3684;DHT22;1858;48.716;9.648;2023-06-04T03:15:45;13.20;99.90
3684;DHT22;1858;48.716;9.648;2023-06-04T03:18:15;13.30;99.90
3684;DHT22;1858;48.716;9.648;2023-06-04T03:20:44;13.30;99.90
3684;DHT22;1858;48.716;9.648;2023-06-04T03:23:12;13.30;99.90
3684;DHT22;1858;48.716;9.648;2023-06-04T03:25:41;13.20;99.90
3684;DHT22;1858;48.716;9.648;2023-06-04T03:28:09;13.10;99.90
3684;DHT22;1858;48.716;9.648;2023-06-04T03:30:39;13.20;99.90
3684;DHT22;1858;48.716;9.648;2023-06-04T03:33:08;13.20;99.90
3684;DHT22;1858;48.716;9.648;2023-06-04T03:35:36;13.20;99.90
3684;DHT22;1858;48.716;9.648;2023-06-04T03:38:04;13.20;99.90
3684;DHT22;1858;48.716;9.648;2023-06-04T03:40:33;13.20;99.90
3684;DHT22;1858;48.716;9.648;2023-06-04T03:43:01;13.20;99.90
3684;DHT22;1858;48.716;9.648;2023-06-04T03:45:31;13.30;99.90
3684;DHT22;1858;48.716;9.648;2023-06-04T03:47:59;13.30;99.90
3684;DHT22;1858;48.716;9.648;2023-06-04T03:50:28;13.40;99.90
3684;DHT22;1858;48.716;9.648;2023-06-04T03:52:57;13.40;99.90
3684;DHT22;1858;48.716;9.648;2023-06-04T03:55:25;13.50;99.90
3684;DHT22;1858;48.716;9.648;2023-06-04T03:57:54;13.50;99.90
3684;DHT22;1858;48.716;9.648;2023-06-04T04:00:22;13.50;99.90
3684;DHT22;1858;48.716;9.648;2023-06-04T04:02:51;13.50;99.90
3684;DHT22;1858;48.716;9.648;2023-06-04T04:05:19;13.60;99.90
3684;DHT22;1858;48.716;9.648;2023-06-04T04:07:47;13.60;99.90
3684;DHT22;1858;48.716;9.648;2023-06-04T04:10:16;13.80;99.90
3684;DHT22;1858;48.716;9.648;2023-06-04T04:12:44;13.80;99.90
3684;DHT22;1858;48.716;9.648;2023-06-04T04:15:13;13.80;99.90
3684;DHT22;1858;48.716;9.648;2023-06-04T04:17:41;13.90;99.90
3684;DHT22;1858;48.716;9.648;2023-06-04T04:20:10;13.90;99.90
3684;DHT22;1858;48.716;9.648;2023-06-04T04:22:42;14.00;99.90
3684;DHT22;1858;48.716;9.648;2023-06-04T04:25:10;14.00;99.90
3684;DHT22;1858;48.716;9.648;2023-06-04T04:27:39;14.00;99.90
3684;DHT22;1858;48.716;9.648;2023-06-04T04:32:59;14.10;99.90
3684;DHT22;1858;48.716;9.648;2023-06-04T04:35:28;14.10;99.90
3684;DHT22;1858;48.716;9.648;2023-06-04T04:40:49;14.10;99.90
3684;DHT22;1858;48.716;9.648;2023-06-04T04:43:35;14.10;99.90
3684;DHT22;1858;48.716;9.648;2023-06-04T04:45:59;14.10;99.90
3684;DHT22;1858;48.716;9.648;2023-06-04T04:48:28;14.20;99.90
3684;DHT22;1858;48.716;9.648;2023-06-04T04:50:56;14.20;99.90
3684;DHT22;1858;48.716;9.648;2023-06-04T04:53:25;14.30;99.90
3684;DHT22;1858;48.716;9.648;2023-06-04T04:55:53;14.30;99.90
3684;DHT22;1858;48.716;9.648;2023-06-04T04:58:22;14.30;99.90
3684;DHT22;1858;48.716;9.648;2023-06-04T05:00:50;14.30;99.90
3684;DHT22;1858;48.716;9.648;2023-06-04T05:03:19;14.50;99.90
3684;DHT22;1858;48.716;9.648;2023-06-04T05:05:47;14.50;99.90
3684;DHT22;1858;48.716;9.648;2023-06-04T05:08:15;14.60;95.50
3684;DHT22;1858;48.716;9.648;2023-06-04T05:10:44;14.60;81.80
3684;DHT22;1858;48.716;9.648;2023-06-04T05:13:12;14.70;99.90
3684;DHT22;1858;48.716;9.648;2023-06-04T05:15:46;14.80;78.00
3684;DHT22;1858;48.716;9.648;2023-06-04T05:18:15;14.80;67.60
3684;DHT22;1858;48.716;9.648;2023-06-04T05:20:43;14.80;72.90
3684;DHT22;1858;48.716;9.648;2023-06-04T05:23:12;15.00;72.80
3684;DHT22;1858;48.716;9.648;2023-06-04T05:25:41;15.00;77.70
3684;DHT22;1858;48.716;9.648;2023-06-04T05:28:09;15.20;99.90
3684;DHT22;1858;48.716;9.648;2023-06-04T05:30:40;15.40;99.90
3684;DHT22;1858;48.716;9.648;2023-06-04T05:33:09;15.50;73.10
3684;DHT22;1858;48.716;9.648;2023-06-04T05:36:01;15.60;65.20
3684;DHT22;1858;48.716;9.648;2023-06-04T05:38:29;15.80;99.90
3684;DHT22;1858;48.716;9.648;2023-06-04T05:40:58;15.90;80.60
3684;DHT22;1858;48.716;9.648;2023-06-04T05:43:26;15.90;60.60
3684;DHT22;1858;48.716;9.648;2023-06-04T05:45:55;16.00;56.00
3684;DHT22;1858;48.716;9.648;2023-06-04T05:48:23;16.00;46.70
3684;DHT22;1858;48.716;9.648;2023-06-04T05:50:52;16.10;44.80
3684;DHT22;1858;48.716;9.648;2023-06-04T05:53:20;16.30;44.30
3684;DHT22;1858;48.716;9.648;2023-06-04T05:55:49;16.40;31.70
3684;DHT22;1858;48.716;9.648;2023-06-04T05:58:17;16.50;26.80
3684;DHT22;1858;48.716;9.648;2023-06-04T06:00:46;16.60;53.60
3684;DHT22;1858;48.716;9.648;2023-06-04T06:03:16;16.80;22.10
3684;DHT22;1858;48.716;9.648;2023-06-04T06:05:44;17.00;23.60
3684;DHT22;1858;48.716;9.648;2023-06-04T06:08:34;17.10;22.90
3684;DHT22;1858;48.716;9.648;2023-06-04T06:11:02;17.30;16.70
3684;DHT22;1858;48.716;9.648;2023-06-04T06:13:32;17.60;21.80
3684;DHT22;1858;48.716;9.648;2023-06-04T06:16:00;17.80;6.60
3684;DHT22;1858;48.716;9.648;2023-06-04T06:18:29;18.00;6.10
3684;DHT22;1858;48.716;9.648;2023-06-04T06:20:58;18.30;1.00
3684;DHT22;1858;48.716;9.648;2023-06-04T06:23:26;18.50;1.00
3684;DHT22;1858;48.716;9.648;2023-06-04T06:28:35;19.30;1.00
3684;DHT22;1858;48.716;9.648;2023-06-04T06:31:04;19.90;1.00
3684;DHT22;1858;48.716;9.648;2023-06-04T06:33:33;20.70;1.00
3684;DHT22;1858;48.716;9.648;2023-06-04T06:36:01;21.80;1.00
3684;DHT22;1858;48.716;9.648;2023-06-04T06:38:29;23.10;1.00
3684;DHT22;1858;48.716;9.648;2023-06-04T06:40:59;24.70;1.00
3684;DHT22;1858;48.716;9.648;2023-06-04T06:43:27;26.00;1.00
3684;DHT22;1858;48.716;9.648;2023-06-04T06:45:56;27.30;1.00
3684;DHT22;1858;48.716;9.648;2023-06-04T06:48:24;28.60;1.00
3684;DHT22;1858;48.716;9.648;2023-06-04T06:50:53;29.70;1.00
3684;DHT22;1858;48.716;9.648;2023-06-04T06:53:22;30.80;1.00
3684;DHT22;1858;48.716;9.648;2023-06-04T06:55:50;31.70;1.00
3684;DHT22;1858;48.716;9.648;2023-06-04T06:58:18;32.60;1.00
3684;DHT22;1858;48.716;9.648;2023-06-04T07:00:47;33.30;1.00
3684;DHT22;1858;48.716;9.648;2023-06-04T07:03:15;33.80;1.00
3684;DHT22;1858;48.716;9.648;2023-06-04T07:06:03;34.30;99.90
3684;DHT22;1858;48.716;9.648;2023-06-04T07:08:32;34.80;99.90
3684;DHT22;1858;48.716;9.648;2023-06-04T07:11:02;35.00;99.90
3684;DHT22;1858;48.716;9.648;2023-06-04T07:13:31;35.40;99.90
3684;DHT22;1858;48.716;9.648;2023-06-04T07:16:01;36.10;99.90
3684;DHT22;1858;48.716;9.648;2023-06-04T07:18:30;36.10;99.90
3684;DHT22;1858;48.716;9.648;2023-06-04T07:20:59;36.80;99.90
3684;DHT22;1858;48.716;9.648;2023-06-04T07:23:28;37.30;99.90
3684;DHT22;1858;48.716;9.648;2023-06-04T07:25:57;37.00;99.90
3684;DHT22;1858;48.716;9.648;2023-06-04T07:28:25;37.50;99.90
3684;DHT22;1858;48.716;9.648;2023-06-04T07:30:54;38.10;99.90
3684;DHT22;1858;48.716;9.648;2023-06-04T07:33:22;38.60;99.90
3684;DHT22;1858;48.716;9.648;2023-06-04T07:35:51;38.50;99.90
3684;DHT22;1858;48.716;9.648;2023-06-04T07:38:19;38.90;99.90
3684;DHT22;1858;48.716;9.648;2023-06-04T07:40:48;39.30;99.90
3684;DHT22;1858;48.716;9.648;2023-06-04T07:43:16;39.70;99.90
3684;DHT22;1858;48.716;9.648;2023-06-04T07:45:45;39.80;99.90
3684;DHT22;1858;48.716;9.648;2023-06-04T07:48:13;39.70;99.90
3684;DHT22;1858;48.716;9.648;2023-06-04T07:50:42;39.60;99.90
3684;DHT22;1858;48.716;9.648;2023-06-04T07:53:10;39.70;99.90
3684;DHT22;1858;48.716;9.648;2023-06-04T07:55:39;40.10;99.90
3684;DHT22;1858;48.716;9.648;2023-06-04T07:58:07;40.30;99.90
3684;DHT22;1858;48.716;9.648;2023-06-04T08:00:35;40.90;99.90
3684;DHT22;1858;48.716;9.648;2023-06-04T08:03:04;41.30;99.90
3684;DHT22;1858;48.716;9.648;2023-06-04T08:05:32;41.50;99.90
3684;DHT22;1858;48.716;9.648;2023-06-04T08:08:02;41.40;99.90
3684;DHT22;1858;48.716;9.648;2023-06-04T08:10:31;41.50;99.90
3684;DHT22;1858;48.716;9.648;2023-06-04T08:12:59;41.90;99.90
3684;DHT22;1858;48.716;9.648;2023-06-04T08:15:28;42.60;99.90
3684;DHT22;1858;48.716;9.648;2023-06-04T08:17:57;42.60;99.90
3684;DHT22;1858;48.716;9.648;2023-06-04T08:20:25;42.70;99.90
3684;DHT22;1858;48.716;9.648;2023-06-04T08:22:54;43.00;99.90
3684;DHT22;1858;48.716;9.648;2023-06-04T08:25:22;43.10;99.90
3684;DHT22;1858;48.716;9.648;2023-06-04T08:27:51;43.00;99.90
3684;DHT22;1858;48.716;9.648;2023-06-04T08:30:19;43.50;99.90
3684;DHT22;1858;48.716;9.648;2023-06-04T08:32:47;43.30;99.90
3684;DHT22;1858;48.716;9.648;2023-06-04T08:35:16;43.20;99.90
3684;DHT22;1858;48.716;9.648;2023-06-04T08:37:44;43.10;99.90
3684;DHT22;1858;48.716;9.648;2023-06-04T08:40:13;43.20;99.90
3684;DHT22;1858;48.716;9.648;2023-06-04T08:42:42;43.30;99.90
3684;DHT22;1858;48.716;9.648;2023-06-04T08:45:14;43.60;99.90
3684;DHT22;1858;48.716;9.648;2023-06-04T08:47:50;44.10;99.90
3684;DHT22;1858;48.716;9.648;2023-06-04T08:50:42;44.50;99.90
3684;DHT22;1858;48.716;9.648;2023-06-04T08:53:31;44.10;99.90
3684;DHT22;1858;48.716;9.648;2023-06-04T08:55:59;44.40;99.90
3684;DHT22;1858;48.716;9.648;2023-06-04T09:01:17;44.00;99.90
3684;DHT22;1858;48.716;9.648;2023-06-04T09:03:46;43.80;99.90
3684;DHT22;1858;48.716;9.648;2023-06-04T09:06:15;43.60;99.90
3684;DHT22;1858;48.716;9.648;2023-06-04T09:08:44;44.00;99.90
3684;DHT22;1858;48.716;9.648;2023-06-04T09:11:51;44.50;99.90
3684;DHT22;1858;48.716;9.648;2023-06-04T09:14:25;44.70;99.90
3684;DHT22;1858;48.716;9.648;2023-06-04T09:16:55;44.50;99.90
3684;DHT22;1858;48.716;9.648;2023-06-04T09:19:26;44.50;99.90
3684;DHT22;1858;48.716;9.648;2023-06-04T09:21:58;44.40;99.90
3684;DHT22;1858;48.716;9.648;2023-06-04T09:24:47;44.80;99.90
3684;DHT22;1858;48.716;9.648;2023-06-04T09:27:20;44.70;99.90
3684;DHT22;1858;48.716;9.648;2023-06-04T09:30:12;44.80;99.90
3684;DHT22;1858;48.716;9.648;2023-06-04T09:35:58;45.00;99.90
3684;DHT22;1858;48.716;9.648;2023-06-04T09:38:35;44.70;99.90
3684;DHT22;1858;48.716;9.648;2023-06-04T09:41:05;45.00;99.90
3684;DHT22;1858;48.716;9.648;2023-06-04T09:43:34;45.50;99.90
3684;DHT22;1858;48.716;9.648;2023-06-04T09:46:17;45.70;99.90
3684;DHT22;1858;48.716;9.648;2023-06-04T09:49:02;45.50;99.90
3684;DHT22;1858;48.716;9.648;2023-06-04T09:51:32;45.60;99.90
3684;DHT22;1858;48.716;9.648;2023-06-04T09:54:02;45.80;99.90
3684;DHT22;1858;48.716;9.648;2023-06-04T09:56:39;46.20;99.90
3684;DHT22;1858;48.716;9.648;2023-06-04T09:59:03;46.50;99.90
3684;DHT22;1858;48.716;9.648;2023-06-04T10:01:32;46.60;99.90
3684;DHT22;1858;48.716;9.648;2023-06-04T10:04:03;46.50;99.90
3684;DHT22;1858;48.716;9.648;2023-06-04T10:06:35;46.30;99.90
3684;DHT22;1858;48.716;9.648;2023-06-04T10:09:05;46.20;99.90
3684;DHT22;1858;48.716;9.648;2023-06-04T10:11:40;46.30;99.90
3684;DHT22;1858;48.716;9.648;2023-06-04T10:17:32;45.30;99.90
3684;DHT22;1858;48.716;9.648;2023-06-04T10:20:02;45.50;99.90
3684;DHT22;1858;48.716;9.648;2023-06-04T10:22:34;44.80;99.90
3684;DHT22;1858;48.716;9.648;2023-06-04T10:25:02;43.30;99.90
3684;DHT22;1858;48.716;9.648;2023-06-04T10:27:31;43.00;99.90
3684;DHT22;1858;48.716;9.648;2023-06-04T10:30:02;42.00;99.90
3684;DHT22;1858;48.716;9.648;2023-06-04T10:32:31;41.90;99.90
3684;DHT22;1858;48.716;9.648;2023-06-04T10:35:04;41.70;99.90
3684;DHT22;1858;48.716;9.648;2023-06-04T10:38:03;42.00;99.90
3684;DHT22;1858;48.716;9.648;2023-06-04T10:40:36;42.30;99.90
3684;DHT22;1858;48.716;9.648;2023-06-04T10:42:56;42.20;99.90
3684;DHT22;1858;48.716;9.648;2023-06-04T10:48:14;42.00;99.90
3684;DHT22;1858;48.716;9.648;2023-06-04T10:51:01;41.50;99.90
3684;DHT22;1858;48.716;9.648;2023-06-04T10:53:36;41.30;99.90
3684;DHT22;1858;48.716;9.648;2023-06-04T10:56:01;41.00;99.90
3684;DHT22;1858;48.716;9.648;2023-06-04T10:58:34;40.20;99.90
3684;DHT22;1858;48.716;9.648;2023-06-04T11:01:02;39.50;99.90
3684;DHT22;1858;48.716;9.648;2023-06-04T11:03:50;38.90;99.90
3684;DHT22;1858;48.716;9.648;2023-06-04T11:06:19;38.40;99.90
3684;DHT22;1858;48.716;9.648;2023-06-04T11:08:48;37.90;99.90
3684;DHT22;1858;48.716;9.648;2023-06-04T11:11:17;37.10;99.90
3684;DHT22;1858;48.716;9.648;2023-06-04T11:21:57;34.60;99.90
3684;DHT22;1858;48.716;9.648;2023-06-04T11:24:26;34.30;99.90
3684;DHT22;1858;48.716;9.648;2023-06-04T11:26:56;33.60;99.90
3684;DHT22;1858;48.716;9.648;2023-06-04T11:29:31;33.00;99.90
3684;DHT22;1858;48.716;9.648;2023-06-04T11:32:00;32.60;99.90
3684;DHT22;1858;48.716;9.648;2023-06-04T11:34:30;32.30;99.90
3684;DHT22;1858;48.716;9.648;2023-06-04T11:37:09;32.20;99.90
3684;DHT22;1858;48.716;9.648;2023-06-04T11:39:37;32.10;99.90
3684;DHT22;1858;48.716;9.648;2023-06-04T11:42:07;31.80;99.90
3684;DHT22;1858;48.716;9.648;2023-06-04T11:44:36;31.70;99.90
3684;DHT22;1858;48.716;9.648;2023-06-04T11:49:57;31.30;99.90
3684;DHT22;1858;48.716;9.648;2023-06-04T11:52:28;31.20;99.90
3684;DHT22;1858;48.716;9.648;2023-06-04T11:54:56;31.20;99.90
3684;DHT22;1858;48.716;9.648;2023-06-04T11:57:25;30.90;99.90
3684;DHT22;1858;48.716;9.648;2023-06-04T11:59:54;30.90;1.00
3684;DHT22;1858;48.716;9.648;2023-06-04T12:02:22;30.80;99.90
3684;DHT22;1858;48.716;9.648;2023-06-04T12:04:52;30.60;99.90
3684;DHT22;1858;48.716;9.648;2023-06-04T12:07:21;30.30;99.90
3684;DHT22;1858;48.716;9.648;2023-06-04T12:09:53;30.00;99.90
3684;DHT22;1858;48.716;9.648;2023-06-04T12:12:24;29.90;1.00
3684;DHT22;1858;48.716;9.648;2023-06-04T12:14:58;29.70;99.90
3684;DHT22;1858;48.716;9.648;2023-06-04T12:17:27;29.80;99.90
3684;DHT22;1858;48.716;9.648;2023-06-04T12:19:55;29.90;99.90
3684;DHT22;1858;48.716;9.648;2023-06-04T12:22:25;29.80;99.90
3684;DHT22;1858;48.716;9.648;2023-06-04T12:25:23;29.80;1.00
3684;DHT22;1858;48.716;9.648;2023-06-04T12:27:49;29.30;99.90
3684;DHT22;1858;48.716;9.648;2023-06-04T12:30:18;29.00;1.00
3684;DHT22;1858;48.716;9.648;2023-06-04T12:32:47;29.00;99.90
3684;DHT22;1858;48.716;9.648;2023-06-04T12:35:15;29.00;99.90
3684;DHT22;1858;48.716;9.648;2023-06-04T12:37:44;29.10;1.00
3684;DHT22;1858;48.716;9.648;2023-06-04T12:40:12;29.10;1.00
3684;DHT22;1858;48.716;9.648;2023-06-04T12:42:41;29.20;1.00
3684;DHT22;1858;48.716;9.648;2023-06-04T12:45:12;29.20;99.90
3684;DHT22;1858;48.716;9.648;2023-06-04T12:47:41;29.10;1.00
3684;DHT22;1858;48.716;9.648;2023-06-04T12:50:10;29.10;1.00
3684;DHT22;1858;48.716;9.648;2023-06-04T12:52:38;29.10;99.90
3684;DHT22;1858;48.716;9.648;2023-06-04T12:55:07;28.80;99.90
3684;DHT22;1858;48.716;9.648;2023-06-04T12:57:36;28.70;99.90
3684;DHT22;1858;48.716;9.648;2023-06-04T13:00:24;28.60;99.90
3684;DHT22;1858;48.716;9.648;2023-06-04T13:02:53;28.50;99.90
3684;DHT22;1858;48.716;9.648;2023-06-04T13:05:21;28.30;99.90
3684;DHT22;1858;48.716;9.648;2023-06-04T13:07:49;28.20;99.90
3684;DHT22;1858;48.716;9.648;2023-06-04T13:10:18;28.00;99.90
3684;DHT22;1858;48.716;9.648;2023-06-04T13:12:48;27.90;99.90
3684;DHT22;1858;48.716;9.648;2023-06-04T13:15:16;27.80;99.90
3684;DHT22;1858;48.716;9.648;2023-06-04T13:17:45;27.70;99.90
3684;DHT22;1858;48.716;9.648;2023-06-04T13:20:14;27.70;99.90
3684;DHT22;1858;48.716;9.648;2023-06-04T13:22:42;27.70;99.90
3684;DHT22;1858;48.716;9.648;2023-06-04T13:25:11;27.80;1.00
3684;DHT22;1858;48.716;9.648;2023-06-04T13:27:40;27.70;99.90
3684;DHT22;1858;48.716;9.648;2023-06-04T13:30:09;27.80;99.90
3684;DHT22;1858;48.716;9.648;2023-06-04T13:32:57;27.90;99.90
3684;DHT22;1858;48.716;9.648;2023-06-04T13:35:25;27.80;1.00
3684;DHT22;1858;48.716;9.648;2023-06-04T13:37:54;27.90;1.00
3684;DHT22;1858;48.716;9.648;2023-06-04T13:40:22;27.70;1.00
3684;DHT22;1858;48.716;9.648;2023-06-04T13:42:51;27.70;1.00
3684;DHT22;1858;48.716;9.648;2023-06-04T13:45:19;27.50;99.90
3684;DHT22;1858;48.716;9.648;2023-06-04T13:47:48;27.50;1.00
3684;DHT22;1858;48.716;9.648;2023-06-04T13:50:17;27.30;1.00
3684;DHT22;1858;48.716;9.648;2023-06-04T13:52:46;27.30;99.90
3684;DHT22;1858;48.716;9.648;2023-06-04T13:55:14;27.40;99.90
3684;DHT22;1858;48.716;9.648;2023-06-04T13:57:43;27.50;1.00
3684;DHT22;1858;48.716;9.648;2023-06-04T14:00:12;27.60;99.90
3684;DHT22;1858;48.716;9.648;2023-06-04T14:02:41;27.60;99.90
3684;DHT22;1858;48.716;9.648;2023-06-04T14:05:09;27.50;1.00
3684;DHT22;1858;48.716;9.648;2023-06-04T14:07:38;27.40;99.90
3684;DHT22;1858;48.716;9.648;2023-06-04T14:10:06;27.20;99.90
3684;DHT22;1858;48.716;9.648;2023-06-04T14:12:35;27.10;99.90
3684;DHT22;1858;48.716;9.648;2023-06-04T14:15:04;27.20;99.90
3684;DHT22;1858;48.716;9.648;2023-06-04T14:17:33;27.10;1.00
3684;DHT22;1858;48.716;9.648;2023-06-04T14:20:02;27.20;99.90
3684;DHT22;1858;48.716;9.648;2023-06-04T14:22:37;27.30;99.90
3684;DHT22;1858;48.716;9.648;2023-06-04T14:25:25;27.30;1.00
3684;DHT22;1858;48.716;9.648;2023-06-04T14:27:54;27.30;1.00
3684;DHT22;1858;48.716;9.648;2023-06-04T14:30:23;27.30;99.90
3684;DHT22;1858;48.716;9.648;2023-06-04T14:32:51;27.30;99.90
3684;DHT22;1858;48.716;9.648;2023-06-04T14:35:20;27.20;99.90
3684;DHT22;1858;48.716;9.648;2023-06-04T14:37:48;27.30;99.90
3684;DHT22;1858;48.716;9.648;2023-06-04T14:40:17;27.30;99.90
3684;DHT22;1858;48.716;9.648;2023-06-04T14:42:45;27.30;99.90
3684;DHT22;1858;48.716;9.648;2023-06-04T14:45:14;27.40;99.90
3684;DHT22;1858;48.716;9.648;2023-06-04T14:47:42;27.30;99.90
3684;DHT22;1858;48.716;9.648;2023-06-04T14:50:11;27.20;99.90
3684;DHT22;1858;48.716;9.648;2023-06-04T14:52:39;27.30;99.90
3684;DHT22;1858;48.716;9.648;2023-06-04T14:55:27;27.20;99.90
3684;DHT22;1858;48.716;9.648;2023-06-04T14:57:55;27.20;99.90
3684;DHT22;1858;48.716;9.648;2023-06-04T15:00:24;27.10;99.90
3684;DHT22;1858;48.716;9.648;2023-06-04T15:02:52;27.20;99.90
3684;DHT22;1858;48.716;9.648;2023-06-04T15:05:21;27.20;99.90
3684;DHT22;1858;48.716;9.648;2023-06-04T15:07:49;27.10;99.90
3684;DHT22;1858;48.716;9.648;2023-06-04T15:10:18;27.10;99.90
3684;DHT22;1858;48.716;9.648;2023-06-04T15:12:46;27.10;99.90
3684;DHT22;1858;48.716;9.648;2023-06-04T15:15:14;27.00;1.00
3684;DHT22;1858;48.716;9.648;2023-06-04T15:17:43;27.00;99.90
3684;DHT22;1858;48.716;9.648;2023-06-04T15:20:12;27.00;99.90
3684;DHT22;1858;48.716;9.648;2023-06-04T15:22:40;26.90;99.90
3684;DHT22;1858;48.716;9.648;2023-06-04T15:25:09;26.90;99.90
3684;DHT22;1858;48.716;9.648;2023-06-04T15:27:37;26.80;99.90
3684;DHT22;1858;48.716;9.648;2023-06-04T15:30:09;26.70;99.90
3684;DHT22;1858;48.716;9.648;2023-06-04T15:32:37;26.70;99.90
3684;DHT22;1858;48.716;9.648;2023-06-04T15:35:25;26.70;99.90
3684;DHT22;1858;48.716;9.648;2023-06-04T15:37:53;26.70;99.90
3684;DHT22;1858;48.716;9.648;2023-06-04T15:40:22;26.50;99.90
3684;DHT22;1858;48.716;9.648;2023-06-04T15:42:51;26.50;99.90
3684;DHT22;1858;48.716;9.648;2023-06-04T15:45:19;26.40;99.90
3684;DHT22;1858;48.716;9.648;2023-06-04T15:47:50;26.30;1.00
3684;DHT22;1858;48.716;9.648;2023-06-04T15:50:18;26.20;1.00
3684;DHT22;1858;48.716;9.648;2023-06-04T15:52:47;26.20;1.00
3684;DHT22;1858;48.716;9.648;2023-06-04T15:55:16;26.10;99.90
3684;DHT22;1858;48.716;9.648;2023-06-04T15:57:44;26.10;99.90
3684;DHT22;1858;48.716;9.648;2023-06-04T16:00:13;26.00;99.90
3684;DHT22;1858;48.716;9.648;2023-06-04T16:02:41;26.00;1.00
3684;DHT22;1858;48.716;9.648;2023-06-04T16:05:10;25.90;1.00
3684;DHT22;1858;48.716;9.648;2023-06-04T16:07:38;25.70;1.00
3684;DHT22;1858;48.716;9.648;2023-06-04T16:10:07;25.70;1.00
3684;DHT22;1858;48.716;9.648;2023-06-04T16:12:36;25.70;1.00
3684;DHT22;1858;48.716;9.648;2023-06-04T16:15:04;25.70;1.00
3684;DHT22;1858;48.716;9.648;2023-06-04T16:17:33;25.80;1.00
3684;DHT22;1858;48.716;9.648;2023-06-04T16:20:02;25.70;1.00
3684;DHT22;1858;48.716;9.648;2023-06-04T16:22:31;25.60;1.00
3684;DHT22;1858;48.716;9.648;2023-06-04T16:24:59;25.60;1.00
3684;DHT22;1858;48.716;9.648;2023-06-04T16:27:27;25.60;1.00
3684;DHT22;1858;48.716;9.648;2023-06-04T16:29:56;25.60;1.00
3684;DHT22;1858;48.716;9.648;2023-06-04T16:32:24;25.60;1.00
3684;DHT22;1858;48.716;9.648;2023-06-04T16:34:53;25.30;1.00
3684;DHT22;1858;48.716;9.648;2023-06-04T16:37:21;25.30;1.00
3684;DHT22;1858;48.716;9.648;2023-06-04T16:39:50;25.30;1.00
3684;DHT22;1858;48.716;9.648;2023-06-04T16:42:38;25.10;1.00
3684;DHT22;1858;48.716;9.648;2023-06-04T16:45:07;25.10;1.00
3684;DHT22;1858;48.716;9.648;2023-06-04T16:47:36;25.10;1.00
3684;DHT22;1858;48.716;9.648;2023-06-04T16:50:06;25.10;1.00
3684;DHT22;1858;48.716;9.648;2023-06-04T16:52:34;25.10;1.00
3684;DHT22;1858;48.716;9.648;2023-06-04T16:55:10;25.10;1.00
3684;DHT22;1858;48.716;9.648;2023-06-04T16:58:02;25.10;1.00